East Grand Rapids, Michigan
Current Conditions -  °F | °C
As of 8:03 AM on Thursday 27 Nov 2014 (Local Time) from KGRR Reporting Station
Light Snow Light Snow  
Wind Chill: 27°   Ceiling: 4200
Heat Index: 27°   Visibility: 2.5mi
Dew Point: 23°   Wind: 3mph
Humidity: 85%   Direction: 310°NW
Pressure: 30.17"   Gusts: NA
Location:  42.9365°N, 85.5426°W
Report Text: KGRR 271303Z 31003KT 2 1/2SM -SN BR BKN042 OVC090 M03/M05 A3017 RMK AO2 P0000 T10281050
Loading
Personal Weather Stations






























Interactive Weather Map New forecast layout! Learn more

10-Day Weather Forecast

Advertisements
Track Severe Weather on mobile